sensor_id;sensor_type;location;lat;lon;timestamp;temperature;humidity
36416;DHT22;22447;44.530;18.620;2023-09-07T00:01:31;14.70;99.90
36416;DHT22;22447;44.530;18.620;2023-09-07T00:03:57;14.70;99.90
36416;DHT22;22447;44.530;18.620;2023-09-07T00:06:23;14.60;99.90
36416;DHT22;22447;44.530;18.620;2023-09-07T00:08:49;14.60;99.90
36416;DHT22;22447;44.530;18.620;2023-09-07T00:11:14;14.60;99.90
36416;DHT22;22447;44.530;18.620;2023-09-07T00:13:40;14.50;99.90
36416;DHT22;22447;44.530;18.620;2023-09-07T00:16:06;14.50;99.90
36416;DHT22;22447;44.530;18.620;2023-09-07T00:18:33;14.50;99.90
36416;DHT22;22447;44.530;18.620;2023-09-07T00:21:00;14.50;99.90
36416;DHT22;22447;44.530;18.620;2023-09-07T00:23:26;14.50;99.90
36416;DHT22;22447;44.530;18.620;2023-09-07T00:25:52;14.50;99.90
36416;DHT22;22447;44.530;18.620;2023-09-07T00:28:18;14.40;99.90
36416;DHT22;22447;44.530;18.620;2023-09-07T00:30:44;14.40;99.90
36416;DHT22;22447;44.530;18.620;2023-09-07T00:33:11;14.40;99.90
36416;DHT22;22447;44.530;18.620;2023-09-07T00:35:37;14.30;99.90
36416;DHT22;22447;44.530;18.620;2023-09-07T00:38:03;14.30;99.90
36416;DHT22;22447;44.530;18.620;2023-09-07T00:40:29;14.30;99.90
36416;DHT22;22447;44.530;18.620;2023-09-07T00:42:55;14.40;99.90
36416;DHT22;22447;44.530;18.620;2023-09-07T00:45:21;14.30;99.90
36416;DHT22;22447;44.530;18.620;2023-09-07T00:47:48;14.30;99.90
36416;DHT22;22447;44.530;18.620;2023-09-07T00:50:14;14.30;99.90
36416;DHT22;22447;44.530;18.620;2023-09-07T00:52:43;14.30;99.90
36416;DHT22;22447;44.530;18.620;2023-09-07T00:55:10;14.30;99.90
36416;DHT22;22447;44.530;18.620;2023-09-07T00:57:36;14.30;99.90
36416;DHT22;22447;44.530;18.620;2023-09-07T01:00:06;14.20;99.90
36416;DHT22;22447;44.530;18.620;2023-09-07T01:02:33;14.30;99.90
36416;DHT22;22447;44.530;18.620;2023-09-07T01:05:01;14.30;99.90
36416;DHT22;22447;44.530;18.620;2023-09-07T01:07:39;14.30;99.90
36416;DHT22;22447;44.530;18.620;2023-09-07T01:10:06;14.30;99.90
36416;DHT22;22447;44.530;18.620;2023-09-07T01:12:34;14.30;99.90
36416;DHT22;22447;44.530;18.620;2023-09-07T01:15:00;14.30;99.90
36416;DHT22;22447;44.530;18.620;2023-09-07T01:17:26;14.20;99.90
36416;DHT22;22447;44.530;18.620;2023-09-07T01:19:54;14.20;99.90
36416;DHT22;22447;44.530;18.620;2023-09-07T01:22:23;14.30;99.90
36416;DHT22;22447;44.530;18.620;2023-09-07T01:24:50;14.20;99.90
36416;DHT22;22447;44.530;18.620;2023-09-07T01:27:18;14.10;99.90
36416;DHT22;22447;44.530;18.620;2023-09-07T01:29:44;14.10;99.90
36416;DHT22;22447;44.530;18.620;2023-09-07T01:32:10;14.10;99.90
36416;DHT22;22447;44.530;18.620;2023-09-07T01:34:36;14.20;99.90
36416;DHT22;22447;44.530;18.620;2023-09-07T01:37:02;14.10;99.90
36416;DHT22;22447;44.530;18.620;2023-09-07T01:39:28;14.30;99.90
36416;DHT22;22447;44.530;18.620;2023-09-07T01:41:54;14.10;99.90
36416;DHT22;22447;44.530;18.620;2023-09-07T01:44:20;14.00;99.90
36416;DHT22;22447;44.530;18.620;2023-09-07T01:46:46;14.20;99.90
36416;DHT22;22447;44.530;18.620;2023-09-07T01:49:12;14.10;99.90
36416;DHT22;22447;44.530;18.620;2023-09-07T01:51:38;14.00;99.90
36416;DHT22;22447;44.530;18.620;2023-09-07T01:54:04;13.90;99.90
36416;DHT22;22447;44.530;18.620;2023-09-07T01:56:31;13.80;99.90
36416;DHT22;22447;44.530;18.620;2023-09-07T01:58:57;13.80;99.90
36416;DHT22;22447;44.530;18.620;2023-09-07T02:01:23;13.80;99.90
36416;DHT22;22447;44.530;18.620;2023-09-07T02:03:49;13.80;99.90
36416;DHT22;22447;44.530;18.620;2023-09-07T02:06:15;13.70;99.90
36416;DHT22;22447;44.530;18.620;2023-09-07T02:08:42;13.60;99.90
36416;DHT22;22447;44.530;18.620;2023-09-07T02:11:08;13.60;99.90
36416;DHT22;22447;44.530;18.620;2023-09-07T02:13:33;13.50;99.90
36416;DHT22;22447;44.530;18.620;2023-09-07T02:16:06;13.50;99.90
36416;DHT22;22447;44.530;18.620;2023-09-07T02:18:33;13.60;99.90
36416;DHT22;22447;44.530;18.620;2023-09-07T02:21:03;13.60;99.90
36416;DHT22;22447;44.530;18.620;2023-09-07T02:23:32;13.70;99.90
36416;DHT22;22447;44.530;18.620;2023-09-07T02:25:59;13.70;99.90
36416;DHT22;22447;44.530;18.620;2023-09-07T02:28:25;13.70;99.90
36416;DHT22;22447;44.530;18.620;2023-09-07T02:30:52;13.60;99.90
36416;DHT22;22447;44.530;18.620;2023-09-07T02:33:18;13.60;99.90
36416;DHT22;22447;44.530;18.620;2023-09-07T02:35:44;13.70;99.90
36416;DHT22;22447;44.530;18.620;2023-09-07T02:38:10;13.70;99.90
36416;DHT22;22447;44.530;18.620;2023-09-07T02:40:43;13.60;99.90
36416;DHT22;22447;44.530;18.620;2023-09-07T02:43:10;13.60;99.90
36416;DHT22;22447;44.530;18.620;2023-09-07T02:45:36;13.60;99.90
36416;DHT22;22447;44.530;18.620;2023-09-07T02:48:04;13.60;99.90
36416;DHT22;22447;44.530;18.620;2023-09-07T02:50:32;13.60;99.90
36416;DHT22;22447;44.530;18.620;2023-09-07T02:52:59;13.50;99.90
36416;DHT22;22447;44.530;18.620;2023-09-07T02:55:27;13.50;99.90
36416;DHT22;22447;44.530;18.620;2023-09-07T02:57:56;13.40;99.90
36416;DHT22;22447;44.530;18.620;2023-09-07T03:00:22;13.40;99.90
36416;DHT22;22447;44.530;18.620;2023-09-07T03:02:49;13.40;99.90
36416;DHT22;22447;44.530;18.620;2023-09-07T03:05:16;13.40;99.90
36416;DHT22;22447;44.530;18.620;2023-09-07T03:07:45;13.40;99.90
36416;DHT22;22447;44.530;18.620;2023-09-07T03:10:11;13.40;99.90
36416;DHT22;22447;44.530;18.620;2023-09-07T03:12:40;13.40;99.90
36416;DHT22;22447;44.530;18.620;2023-09-07T03:15:06;13.30;99.90
36416;DHT22;22447;44.530;18.620;2023-09-07T03:17:33;13.30;99.90
36416;DHT22;22447;44.530;18.620;2023-09-07T03:20:00;13.20;99.90
36416;DHT22;22447;44.530;18.620;2023-09-07T03:22:31;13.20;99.90
36416;DHT22;22447;44.530;18.620;2023-09-07T03:24:57;13.20;99.90
36416;DHT22;22447;44.530;18.620;2023-09-07T03:27:23;13.20;99.90
36416;DHT22;22447;44.530;18.620;2023-09-07T03:29:50;13.20;99.90
36416;DHT22;22447;44.530;18.620;2023-09-07T03:32:19;13.30;99.90
36416;DHT22;22447;44.530;18.620;2023-09-07T03:34:44;13.30;99.90
36416;DHT22;22447;44.530;18.620;2023-09-07T03:37:10;13.20;99.90
36416;DHT22;22447;44.530;18.620;2023-09-07T03:39:37;13.20;99.90
36416;DHT22;22447;44.530;18.620;2023-09-07T03:42:04;13.20;99.90
36416;DHT22;22447;44.530;18.620;2023-09-07T03:44:30;13.10;99.90
36416;DHT22;22447;44.530;18.620;2023-09-07T03:46:56;13.10;99.90
36416;DHT22;22447;44.530;18.620;2023-09-07T03:49:22;13.10;99.90
36416;DHT22;22447;44.530;18.620;2023-09-07T03:51:48;13.20;99.90
36416;DHT22;22447;44.530;18.620;2023-09-07T03:54:13;13.30;99.90
36416;DHT22;22447;44.530;18.620;2023-09-07T03:56:39;13.10;99.90
36416;DHT22;22447;44.530;18.620;2023-09-07T03:59:07;13.20;99.90
36416;DHT22;22447;44.530;18.620;2023-09-07T04:01:34;13.30;99.90
36416;DHT22;22447;44.530;18.620;2023-09-07T04:04:00;13.30;99.90
36416;DHT22;22447;44.530;18.620;2023-09-07T04:06:26;13.30;99.90
36416;DHT22;22447;44.530;18.620;2023-09-07T04:08:52;13.30;99.90
36416;DHT22;22447;44.530;18.620;2023-09-07T04:11:18;13.30;99.90
36416;DHT22;22447;44.530;18.620;2023-09-07T04:13:44;13.20;99.90
36416;DHT22;22447;44.530;18.620;2023-09-07T04:16:09;13.30;99.90
36416;DHT22;22447;44.530;18.620;2023-09-07T04:18:36;13.20;99.90
36416;DHT22;22447;44.530;18.620;2023-09-07T04:21:06;13.10;99.90
36416;DHT22;22447;44.530;18.620;2023-09-07T04:23:32;13.10;99.90
36416;DHT22;22447;44.530;18.620;2023-09-07T04:26:07;13.00;99.90
36416;DHT22;22447;44.530;18.620;2023-09-07T04:28:34;13.00;99.90
36416;DHT22;22447;44.530;18.620;2023-09-07T04:31:01;13.00;99.90
36416;DHT22;22447;44.530;18.620;2023-09-07T04:33:30;13.00;99.90
36416;DHT22;22447;44.530;18.620;2023-09-07T04:35:56;12.90;99.90
36416;DHT22;22447;44.530;18.620;2023-09-07T04:38:22;13.00;99.90
36416;DHT22;22447;44.530;18.620;2023-09-07T04:40:48;13.20;99.90
36416;DHT22;22447;44.530;18.620;2023-09-07T04:43:14;13.10;99.90
36416;DHT22;22447;44.530;18.620;2023-09-07T04:45:47;13.10;99.90
36416;DHT22;22447;44.530;18.620;2023-09-07T04:48:13;13.10;99.90
36416;DHT22;22447;44.530;18.620;2023-09-07T04:50:39;13.30;99.90
36416;DHT22;22447;44.530;18.620;2023-09-07T04:53:05;13.30;99.90
36416;DHT22;22447;44.530;18.620;2023-09-07T04:55:30;13.30;99.90
36416;DHT22;22447;44.530;18.620;2023-09-07T04:57:56;13.30;99.90
36416;DHT22;22447;44.530;18.620;2023-09-07T05:00:22;13.30;99.90
36416;DHT22;22447;44.530;18.620;2023-09-07T05:02:48;13.60;99.90
36416;DHT22;22447;44.530;18.620;2023-09-07T05:05:14;13.50;99.90
36416;DHT22;22447;44.530;18.620;2023-09-07T05:07:41;13.50;99.90
36416;DHT22;22447;44.530;18.620;2023-09-07T05:10:08;13.50;99.90
36416;DHT22;22447;44.530;18.620;2023-09-07T05:12:38;13.60;99.90
36416;DHT22;22447;44.530;18.620;2023-09-07T05:15:05;13.60;99.90
36416;DHT22;22447;44.530;18.620;2023-09-07T05:17:32;13.70;99.90
36416;DHT22;22447;44.530;18.620;2023-09-07T05:19:59;13.80;99.90
36416;DHT22;22447;44.530;18.620;2023-09-07T05:22:25;13.80;99.90
36416;DHT22;22447;44.530;18.620;2023-09-07T05:24:52;13.90;99.90
36416;DHT22;22447;44.530;18.620;2023-09-07T05:27:18;14.20;99.90
36416;DHT22;22447;44.530;18.620;2023-09-07T05:29:44;14.40;99.90
36416;DHT22;22447;44.530;18.620;2023-09-07T05:32:10;14.40;99.90
36416;DHT22;22447;44.530;18.620;2023-09-07T05:34:36;14.50;99.90
36416;DHT22;22447;44.530;18.620;2023-09-07T05:37:02;14.50;99.90
36416;DHT22;22447;44.530;18.620;2023-09-07T05:39:28;14.70;99.90
36416;DHT22;22447;44.530;18.620;2023-09-07T05:41:54;14.70;99.90
36416;DHT22;22447;44.530;18.620;2023-09-07T05:44:20;14.70;99.90
36416;DHT22;22447;44.530;18.620;2023-09-07T05:46:46;14.90;99.90
36416;DHT22;22447;44.530;18.620;2023-09-07T05:49:13;15.00;99.90
36416;DHT22;22447;44.530;18.620;2023-09-07T05:51:39;15.00;99.90
36416;DHT22;22447;44.530;18.620;2023-09-07T05:54:05;15.30;99.90
36416;DHT22;22447;44.530;18.620;2023-09-07T05:56:31;15.50;99.90
36416;DHT22;22447;44.530;18.620;2023-09-07T05:58:59;15.60;99.90
36416;DHT22;22447;44.530;18.620;2023-09-07T06:01:25;15.80;99.90
36416;DHT22;22447;44.530;18.620;2023-09-07T06:03:51;15.80;99.90
36416;DHT22;22447;44.530;18.620;2023-09-07T06:06:17;16.10;99.90
36416;DHT22;22447;44.530;18.620;2023-09-07T06:08:43;16.10;99.90
36416;DHT22;22447;44.530;18.620;2023-09-07T06:11:09;16.20;99.90
36416;DHT22;22447;44.530;18.620;2023-09-07T06:13:35;16.20;99.90
36416;DHT22;22447;44.530;18.620;2023-09-07T06:16:01;16.30;99.90
36416;DHT22;22447;44.530;18.620;2023-09-07T06:18:28;16.30;99.90
36416;DHT22;22447;44.530;18.620;2023-09-07T06:20:54;16.60;99.90
36416;DHT22;22447;44.530;18.620;2023-09-07T06:23:20;16.90;99.90
36416;DHT22;22447;44.530;18.620;2023-09-07T06:25:46;17.20;99.90
36416;DHT22;22447;44.530;18.620;2023-09-07T06:28:12;17.60;99.90
36416;DHT22;22447;44.530;18.620;2023-09-07T06:30:41;18.00;99.90
36416;DHT22;22447;44.530;18.620;2023-09-07T06:33:07;18.20;99.90
36416;DHT22;22447;44.530;18.620;2023-09-07T06:35:33;18.30;99.90
36416;DHT22;22447;44.530;18.620;2023-09-07T06:37:59;18.70;99.90
36416;DHT22;22447;44.530;18.620;2023-09-07T06:40:26;19.20;99.90
36416;DHT22;22447;44.530;18.620;2023-09-07T06:42:54;19.30;99.90
36416;DHT22;22447;44.530;18.620;2023-09-07T06:45:24;19.70;99.90
36416;DHT22;22447;44.530;18.620;2023-09-07T06:47:53;20.00;99.90
36416;DHT22;22447;44.530;18.620;2023-09-07T06:50:22;20.30;99.90
36416;DHT22;22447;44.530;18.620;2023-09-07T06:52:48;20.40;99.10
36416;DHT22;22447;44.530;18.620;2023-09-07T06:55:14;20.70;98.10
36416;DHT22;22447;44.530;18.620;2023-09-07T06:57:40;21.10;97.70
36416;DHT22;22447;44.530;18.620;2023-09-07T07:00:07;21.40;96.10
36416;DHT22;22447;44.530;18.620;2023-09-07T07:02:34;21.30;95.40
36416;DHT22;22447;44.530;18.620;2023-09-07T07:05:01;21.80;94.40
36416;DHT22;22447;44.530;18.620;2023-09-07T07:07:29;22.30;93.10
36416;DHT22;22447;44.530;18.620;2023-09-07T07:09:55;22.40;92.10
36416;DHT22;22447;44.530;18.620;2023-09-07T07:12:21;22.90;91.30
36416;DHT22;22447;44.530;18.620;2023-09-07T07:14:47;23.10;88.40
36416;DHT22;22447;44.530;18.620;2023-09-07T07:17:13;23.40;87.90
36416;DHT22;22447;44.530;18.620;2023-09-07T07:19:40;23.50;85.00
36416;DHT22;22447;44.530;18.620;2023-09-07T07:22:07;23.50;85.60
36416;DHT22;22447;44.530;18.620;2023-09-07T07:24:34;23.40;85.20
36416;DHT22;22447;44.530;18.620;2023-09-07T07:27:00;23.80;85.90
36416;DHT22;22447;44.530;18.620;2023-09-07T07:29:29;24.30;85.50
36416;DHT22;22447;44.530;18.620;2023-09-07T07:31:55;24.50;79.60
36416;DHT22;22447;44.530;18.620;2023-09-07T07:34:21;24.90;81.50
36416;DHT22;22447;44.530;18.620;2023-09-07T07:36:48;25.40;76.80
36416;DHT22;22447;44.530;18.620;2023-09-07T07:39:14;25.30;76.60
36416;DHT22;22447;44.530;18.620;2023-09-07T07:41:42;25.70;73.60
36416;DHT22;22447;44.530;18.620;2023-09-07T07:44:08;25.90;74.70
36416;DHT22;22447;44.530;18.620;2023-09-07T07:46:35;25.80;72.80
36416;DHT22;22447;44.530;18.620;2023-09-07T07:49:00;26.00;71.80
36416;DHT22;22447;44.530;18.620;2023-09-07T07:51:28;26.60;70.10
36416;DHT22;22447;44.530;18.620;2023-09-07T07:53:55;26.10;67.20
36416;DHT22;22447;44.530;18.620;2023-09-07T07:56:24;26.60;68.70
36416;DHT22;22447;44.530;18.620;2023-09-07T07:58:53;27.00;67.00
36416;DHT22;22447;44.530;18.620;2023-09-07T08:01:20;27.30;65.10
36416;DHT22;22447;44.530;18.620;2023-09-07T08:03:51;27.70;61.60
36416;DHT22;22447;44.530;18.620;2023-09-07T08:06:17;27.90;61.90
36416;DHT22;22447;44.530;18.620;2023-09-07T08:08:45;28.10;59.80
36416;DHT22;22447;44.530;18.620;2023-09-07T08:11:11;27.50;59.20
36416;DHT22;22447;44.530;18.620;2023-09-07T08:13:39;28.00;57.70
36416;DHT22;22447;44.530;18.620;2023-09-07T08:16:06;28.50;56.60
36416;DHT22;22447;44.530;18.620;2023-09-07T08:18:35;28.40;58.90
36416;DHT22;22447;44.530;18.620;2023-09-07T08:21:19;28.40;56.00
36416;DHT22;22447;44.530;18.620;2023-09-07T08:23:48;28.20;56.10
36416;DHT22;22447;44.530;18.620;2023-09-07T08:26:15;27.90;56.20
36416;DHT22;22447;44.530;18.620;2023-09-07T08:28:43;28.30;54.10
36416;DHT22;22447;44.530;18.620;2023-09-07T08:31:14;28.70;55.20
36416;DHT22;22447;44.530;18.620;2023-09-07T08:33:46;29.20;53.00
36416;DHT22;22447;44.530;18.620;2023-09-07T08:36:16;29.00;53.10
36416;DHT22;22447;44.530;18.620;2023-09-07T08:38:43;29.20;51.60
36416;DHT22;22447;44.530;18.620;2023-09-07T08:41:20;29.50;51.20
36416;DHT22;22447;44.530;18.620;2023-09-07T08:43:53;29.20;50.10
36416;DHT22;22447;44.530;18.620;2023-09-07T08:46:19;29.60;50.90
36416;DHT22;22447;44.530;18.620;2023-09-07T08:48:49;30.00;49.90
36416;DHT22;22447;44.530;18.620;2023-09-07T08:51:17;30.30;48.60
36416;DHT22;22447;44.530;18.620;2023-09-07T08:53:44;30.50;48.40
36416;DHT22;22447;44.530;18.620;2023-09-07T08:56:13;30.20;50.10
36416;DHT22;22447;44.530;18.620;2023-09-07T08:58:39;28.80;49.40
36416;DHT22;22447;44.530;18.620;2023-09-07T09:01:08;29.10;49.40
36416;DHT22;22447;44.530;18.620;2023-09-07T09:03:36;29.60;48.80
36416;DHT22;22447;44.530;18.620;2023-09-07T09:06:03;29.70;47.50
36416;DHT22;22447;44.530;18.620;2023-09-07T09:08:44;30.10;48.00
36416;DHT22;22447;44.530;18.620;2023-09-07T09:11:11;30.40;47.40
36416;DHT22;22447;44.530;18.620;2023-09-07T09:13:40;30.50;47.90
36416;DHT22;22447;44.530;18.620;2023-09-07T09:16:06;31.10;48.20
36416;DHT22;22447;44.530;18.620;2023-09-07T09:18:46;31.30;47.40
36416;DHT22;22447;44.530;18.620;2023-09-07T09:21:14;31.50;43.40
36416;DHT22;22447;44.530;18.620;2023-09-07T09:23:44;31.60;42.90
36416;DHT22;22447;44.530;18.620;2023-09-07T09:26:17;31.60;42.40
36416;DHT22;22447;44.530;18.620;2023-09-07T09:28:43;31.00;44.30
36416;DHT22;22447;44.530;18.620;2023-09-07T09:31:13;30.80;43.70
36416;DHT22;22447;44.530;18.620;2023-09-07T09:33:47;31.40;43.10
36416;DHT22;22447;44.530;18.620;2023-09-07T09:36:13;31.80;41.60
36416;DHT22;22447;44.530;18.620;2023-09-07T09:38:39;31.90;41.40
36416;DHT22;22447;44.530;18.620;2023-09-07T09:41:06;32.10;39.50
36416;DHT22;22447;44.530;18.620;2023-09-07T09:43:33;31.90;40.30
36416;DHT22;22447;44.530;18.620;2023-09-07T09:46:00;32.20;38.60
36416;DHT22;22447;44.530;18.620;2023-09-07T09:48:27;32.10;38.80
36416;DHT22;22447;44.530;18.620;2023-09-07T09:50:53;32.10;40.00
36416;DHT22;22447;44.530;18.620;2023-09-07T09:53:19;32.50;37.50
36416;DHT22;22447;44.530;18.620;2023-09-07T09:55:50;32.60;37.50
36416;DHT22;22447;44.530;18.620;2023-09-07T09:58:18;32.80;36.50
36416;DHT22;22447;44.530;18.620;2023-09-07T10:00:45;32.60;36.90
36416;DHT22;22447;44.530;18.620;2023-09-07T10:03:16;32.70;37.90
36416;DHT22;22447;44.530;18.620;2023-09-07T10:05:49;32.60;34.70
36416;DHT22;22447;44.530;18.620;2023-09-07T10:08:17;31.80;36.60
36416;DHT22;22447;44.530;18.620;2023-09-07T10:10:46;32.40;36.00
36416;DHT22;22447;44.530;18.620;2023-09-07T10:13:16;32.80;35.70
36416;DHT22;22447;44.530;18.620;2023-09-07T10:16:07;32.30;36.70
36416;DHT22;22447;44.530;18.620;2023-09-07T10:18:35;32.80;36.20
36416;DHT22;22447;44.530;18.620;2023-09-07T10:21:01;33.00;36.30
36416;DHT22;22447;44.530;18.620;2023-09-07T10:23:39;33.00;34.80
36416;DHT22;22447;44.530;18.620;2023-09-07T10:26:12;32.80;36.40
36416;DHT22;22447;44.530;18.620;2023-09-07T10:28:39;32.90;36.30
36416;DHT22;22447;44.530;18.620;2023-09-07T10:31:16;33.00;35.00
36416;DHT22;22447;44.530;18.620;2023-09-07T10:33:43;32.90;27.90
36416;DHT22;22447;44.530;18.620;2023-09-07T10:36:26;31.80;27.80
36416;DHT22;22447;44.530;18.620;2023-09-07T10:38:55;31.10;29.10
36416;DHT22;22447;44.530;18.620;2023-09-07T10:41:22;30.90;28.80
36416;DHT22;22447;44.530;18.620;2023-09-07T10:43:52;30.20;29.80
36416;DHT22;22447;44.530;18.620;2023-09-07T10:46:20;30.40;30.30
36416;DHT22;22447;44.530;18.620;2023-09-07T10:48:51;30.60;30.20
36416;DHT22;22447;44.530;18.620;2023-09-07T10:51:21;30.60;28.40
36416;DHT22;22447;44.530;18.620;2023-09-07T10:53:47;29.80;30.00
36416;DHT22;22447;44.530;18.620;2023-09-07T10:56:13;30.90;28.70
36416;DHT22;22447;44.530;18.620;2023-09-07T10:58:40;31.40;28.60
36416;DHT22;22447;44.530;18.620;2023-09-07T11:01:10;31.90;27.60
36416;DHT22;22447;44.530;18.620;2023-09-07T11:03:37;31.20;28.30
36416;DHT22;22447;44.530;18.620;2023-09-07T11:08:37;32.30;26.90
36416;DHT22;22447;44.530;18.620;2023-09-07T11:11:08;32.80;28.60
36416;DHT22;22447;44.530;18.620;2023-09-07T11:13:34;32.30;26.60
36416;DHT22;22447;44.530;18.620;2023-09-07T11:16:01;32.60;26.70
36416;DHT22;22447;44.530;18.620;2023-09-07T11:18:28;32.80;25.70
36416;DHT22;22447;44.530;18.620;2023-09-07T11:20:54;31.80;27.70
36416;DHT22;22447;44.530;18.620;2023-09-07T11:23:22;31.10;27.40
36416;DHT22;22447;44.530;18.620;2023-09-07T11:25:50;29.80;29.30
36416;DHT22;22447;44.530;18.620;2023-09-07T11:28:17;30.40;29.50
36416;DHT22;22447;44.530;18.620;2023-09-07T11:30:51;30.40;29.00
36416;DHT22;22447;44.530;18.620;2023-09-07T11:33:17;30.30;29.10
36416;DHT22;22447;44.530;18.620;2023-09-07T11:35:43;30.20;28.80
36416;DHT22;22447;44.530;18.620;2023-09-07T11:38:15;30.10;30.00
36416;DHT22;22447;44.530;18.620;2023-09-07T11:40:44;30.10;29.60
36416;DHT22;22447;44.530;18.620;2023-09-07T11:43:14;29.80;30.40
36416;DHT22;22447;44.530;18.620;2023-09-07T11:45:41;29.30;30.40
36416;DHT22;22447;44.530;18.620;2023-09-07T11:48:09;29.60;30.00
36416;DHT22;22447;44.530;18.620;2023-09-07T11:50:35;29.50;31.00
36416;DHT22;22447;44.530;18.620;2023-09-07T11:53:02;29.10;32.70
36416;DHT22;22447;44.530;18.620;2023-09-07T11:55:28;29.80;32.10
36416;DHT22;22447;44.530;18.620;2023-09-07T11:57:54;30.60;31.90
36416;DHT22;22447;44.530;18.620;2023-09-07T12:00:20;31.40;30.70
36416;DHT22;22447;44.530;18.620;2023-09-07T12:02:48;31.80;29.50
36416;DHT22;22447;44.530;18.620;2023-09-07T12:05:14;31.90;27.80
36416;DHT22;22447;44.530;18.620;2023-09-07T12:07:42;32.30;27.70
36416;DHT22;22447;44.530;18.620;2023-09-07T12:10:14;32.50;27.50
36416;DHT22;22447;44.530;18.620;2023-09-07T12:12:40;32.30;26.80
36416;DHT22;22447;44.530;18.620;2023-09-07T12:15:07;32.30;26.90
36416;DHT22;22447;44.530;18.620;2023-09-07T12:17:34;32.20;26.80
36416;DHT22;22447;44.530;18.620;2023-09-07T12:20:00;32.30;27.10
36416;DHT22;22447;44.530;18.620;2023-09-07T12:22:27;32.70;27.50
36416;DHT22;22447;44.530;18.620;2023-09-07T12:24:53;32.30;26.80
36416;DHT22;22447;44.530;18.620;2023-09-07T12:27:19;32.80;27.10
36416;DHT22;22447;44.530;18.620;2023-09-07T12:29:45;33.10;26.80
36416;DHT22;22447;44.530;18.620;2023-09-07T12:32:11;33.00;25.70
36416;DHT22;22447;44.530;18.620;2023-09-07T12:34:37;32.80;25.40
36416;DHT22;22447;44.530;18.620;2023-09-07T12:37:07;32.80;25.90
36416;DHT22;22447;44.530;18.620;2023-09-07T12:39:33;33.00;25.30
36416;DHT22;22447;44.530;18.620;2023-09-07T12:41:59;33.20;25.50
36416;DHT22;22447;44.530;18.620;2023-09-07T12:44:25;33.10;23.60
36416;DHT22;22447;44.530;18.620;2023-09-07T12:46:51;32.90;23.90
36416;DHT22;22447;44.530;18.620;2023-09-07T12:49:17;33.00;26.10
36416;DHT22;22447;44.530;18.620;2023-09-07T12:51:44;33.40;26.40
36416;DHT22;22447;44.530;18.620;2023-09-07T12:54:11;33.60;25.90
36416;DHT22;22447;44.530;18.620;2023-09-07T12:56:36;33.50;25.20
36416;DHT22;22447;44.530;18.620;2023-09-07T12:59:02;33.40;25.30
36416;DHT22;22447;44.530;18.620;2023-09-07T13:01:29;31.90;25.70
36416;DHT22;22447;44.530;18.620;2023-09-07T13:03:56;32.20;27.10
36416;DHT22;22447;44.530;18.620;2023-09-07T13:06:22;31.80;26.60
36416;DHT22;22447;44.530;18.620;2023-09-07T13:08:48;32.20;22.90
36416;DHT22;22447;44.530;18.620;2023-09-07T13:11:17;32.60;24.10
36416;DHT22;22447;44.530;18.620;2023-09-07T13:13:44;32.90;23.60
36416;DHT22;22447;44.530;18.620;2023-09-07T13:16:09;32.80;23.50
36416;DHT22;22447;44.530;18.620;2023-09-07T13:18:37;32.80;24.50
36416;DHT22;22447;44.530;18.620;2023-09-07T13:21:03;33.00;23.10
36416;DHT22;22447;44.530;18.620;2023-09-07T13:23:30;32.90;22.90
36416;DHT22;22447;44.530;18.620;2023-09-07T13:25:57;32.70;22.60
36416;DHT22;22447;44.530;18.620;2023-09-07T13:28:23;32.90;23.50
36416;DHT22;22447;44.530;18.620;2023-09-07T13:30:52;33.10;23.30
36416;DHT22;22447;44.530;18.620;2023-09-07T13:33:18;33.10;23.80
36416;DHT22;22447;44.530;18.620;2023-09-07T13:35:44;33.10;23.10
36416;DHT22;22447;44.530;18.620;2023-09-07T13:38:11;32.40;22.90
36416;DHT22;22447;44.530;18.620;2023-09-07T13:40:37;32.30;24.80
36416;DHT22;22447;44.530;18.620;2023-09-07T13:43:03;31.70;23.90
36416;DHT22;22447;44.530;18.620;2023-09-07T13:45:29;31.80;24.50
36416;DHT22;22447;44.530;18.620;2023-09-07T13:47:55;32.00;24.00
36416;DHT22;22447;44.530;18.620;2023-09-07T13:50:22;32.00;24.80
36416;DHT22;22447;44.530;18.620;2023-09-07T13:52:48;32.10;24.40
36416;DHT22;22447;44.530;18.620;2023-09-07T13:55:15;32.10;24.20
36416;DHT22;22447;44.530;18.620;2023-09-07T13:57:41;32.40;24.00
36416;DHT22;22447;44.530;18.620;2023-09-07T14:00:07;32.20;24.00
36416;DHT22;22447;44.530;18.620;2023-09-07T14:02:33;32.20;24.80
36416;DHT22;22447;44.530;18.620;2023-09-07T14:04:59;32.30;24.10
36416;DHT22;22447;44.530;18.620;2023-09-07T14:07:25;32.30;24.80
36416;DHT22;22447;44.530;18.620;2023-09-07T14:09:56;32.40;24.40
36416;DHT22;22447;44.530;18.620;2023-09-07T14:12:22;32.00;23.90
36416;DHT22;22447;44.530;18.620;2023-09-07T14:14:49;31.80;24.40
36416;DHT22;22447;44.530;18.620;2023-09-07T14:17:16;31.20;24.90
36416;DHT22;22447;44.530;18.620;2023-09-07T14:19:42;31.40;25.70
36416;DHT22;22447;44.530;18.620;2023-09-07T14:22:08;31.60;25.50
36416;DHT22;22447;44.530;18.620;2023-09-07T14:24:34;31.50;24.80
36416;DHT22;22447;44.530;18.620;2023-09-07T14:26:59;31.30;26.10
36416;DHT22;22447;44.530;18.620;2023-09-07T14:29:26;31.10;24.90
36416;DHT22;22447;44.530;18.620;2023-09-07T14:31:54;31.20;25.90
36416;DHT22;22447;44.530;18.620;2023-09-07T14:34:20;31.00;25.30
36416;DHT22;22447;44.530;18.620;2023-09-07T14:36:46;30.70;26.50
36416;DHT22;22447;44.530;18.620;2023-09-07T14:39:12;30.10;26.00
36416;DHT22;22447;44.530;18.620;2023-09-07T14:41:38;30.10;27.00
36416;DHT22;22447;44.530;18.620;2023-09-07T14:44:05;30.00;27.20
36416;DHT22;22447;44.530;18.620;2023-09-07T14:46:32;29.70;27.50
36416;DHT22;22447;44.530;18.620;2023-09-07T14:48:58;29.60;27.80
36416;DHT22;22447;44.530;18.620;2023-09-07T14:51:24;29.60;27.50
36416;DHT22;22447;44.530;18.620;2023-09-07T14:53:50;29.30;28.30
36416;DHT22;22447;44.530;18.620;2023-09-07T14:56:16;29.30;28.20
36416;DHT22;22447;44.530;18.620;2023-09-07T14:58:42;29.20;28.10
36416;DHT22;22447;44.530;18.620;2023-09-07T15:01:08;29.00;28.80
36416;DHT22;22447;44.530;18.620;2023-09-07T15:03:34;28.90;29.20
36416;DHT22;22447;44.530;18.620;2023-09-07T15:06:06;28.90;29.10
36416;DHT22;22447;44.530;18.620;2023-09-07T15:08:32;28.70;28.80
36416;DHT22;22447;44.530;18.620;2023-09-07T15:10:58;28.60;29.50
36416;DHT22;22447;44.530;18.620;2023-09-07T15:13:24;28.60;30.00
36416;DHT22;22447;44.530;18.620;2023-09-07T15:15:50;28.60;29.70
36416;DHT22;22447;44.530;18.620;2023-09-07T15:18:16;28.50;30.10